sensor_id;sensor_type;location;lat;lon;timestamp;P1;durP1;ratioP1;P2;durP2;ratioP2
39778;SDS011;25454;49.878;8.618;2023-04-06T00:01:16;7.50;;;4.43;;
39778;SDS011;25454;49.878;8.618;2023-04-06T00:06:17;6.23;;;4.17;;
39778;SDS011;25454;49.878;8.618;2023-04-06T00:11:17;7.33;;;4.23;;
39778;SDS011;25454;49.878;8.618;2023-04-06T00:16:20;7.83;;;4.40;;
39778;SDS011;25454;49.878;8.618;2023-04-06T00:21:20;5.23;;;3.93;;
39778;SDS011;25454;49.878;8.618;2023-04-06T00:26:21;10.13;;;5.30;;
39778;SDS011;25454;49.878;8.618;2023-04-06T00:31:21;8.00;;;4.80;;
39778;SDS011;25454;49.878;8.618;2023-04-06T00:36:22;7.07;;;4.53;;
39778;SDS011;25454;49.878;8.618;2023-04-06T00:41:23;7.37;;;4.37;;
39778;SDS011;25454;49.878;8.618;2023-04-06T00:46:25;6.00;;;4.20;;
39778;SDS011;25454;49.878;8.618;2023-04-06T00:51:25;6.60;;;4.00;;
39778;SDS011;25454;49.878;8.618;2023-04-06T00:56:27;7.53;;;4.43;;
39778;SDS011;25454;49.878;8.618;2023-04-06T01:01:28;7.73;;;4.93;;
39778;SDS011;25454;49.878;8.618;2023-04-06T01:06:29;7.27;;;4.90;;
39778;SDS011;25454;49.878;8.618;2023-04-06T01:11:29;6.40;;;4.63;;
39778;SDS011;25454;49.878;8.618;2023-04-06T01:16:31;6.40;;;4.67;;
39778;SDS011;25454;49.878;8.618;2023-04-06T01:21:32;7.27;;;5.50;;
39778;SDS011;25454;49.878;8.618;2023-04-06T01:26:32;6.63;;;4.87;;
39778;SDS011;25454;49.878;8.618;2023-04-06T01:31:34;7.67;;;5.17;;
39778;SDS011;25454;49.878;8.618;2023-04-06T01:36:36;5.53;;;4.43;;
39778;SDS011;25454;49.878;8.618;2023-04-06T01:41:36;8.17;;;4.93;;
39778;SDS011;25454;49.878;8.618;2023-04-06T01:46:37;6.13;;;5.03;;
39778;SDS011;25454;49.878;8.618;2023-04-06T01:51:37;6.37;;;4.90;;
39778;SDS011;25454;49.878;8.618;2023-04-06T01:56:38;6.77;;;4.57;;
39778;SDS011;25454;49.878;8.618;2023-04-06T02:01:39;5.93;;;4.50;;
39778;SDS011;25454;49.878;8.618;2023-04-06T02:06:39;5.97;;;4.70;;
39778;SDS011;25454;49.878;8.618;2023-04-06T02:11:40;7.40;;;4.83;;
39778;SDS011;25454;49.878;8.618;2023-04-06T02:16:40;8.00;;;5.17;;
39778;SDS011;25454;49.878;8.618;2023-04-06T02:21:41;4.90;;;4.40;;
39778;SDS011;25454;49.878;8.618;2023-04-06T02:26:42;5.87;;;4.50;;
39778;SDS011;25454;49.878;8.618;2023-04-06T02:31:42;5.10;;;4.03;;
39778;SDS011;25454;49.878;8.618;2023-04-06T02:36:44;6.83;;;4.70;;
39778;SDS011;25454;49.878;8.618;2023-04-06T02:41:45;6.20;;;5.13;;
39778;SDS011;25454;49.878;8.618;2023-04-06T02:46:47;7.60;;;4.80;;
39778;SDS011;25454;49.878;8.618;2023-04-06T02:51:48;7.23;;;5.90;;
39778;SDS011;25454;49.878;8.618;2023-04-06T02:56:48;6.67;;;4.87;;
39778;SDS011;25454;49.878;8.618;2023-04-06T03:01:49;7.70;;;5.57;;
39778;SDS011;25454;49.878;8.618;2023-04-06T03:06:50;7.07;;;5.43;;
39778;SDS011;25454;49.878;8.618;2023-04-06T03:11:51;6.30;;;5.37;;
39778;SDS011;25454;49.878;8.618;2023-04-06T03:16:51;8.47;;;5.50;;
39778;SDS011;25454;49.878;8.618;2023-04-06T03:21:52;7.03;;;5.73;;
39778;SDS011;25454;49.878;8.618;2023-04-06T03:26:52;7.83;;;6.00;;
39778;SDS011;25454;49.878;8.618;2023-04-06T03:31:53;7.43;;;5.83;;
39778;SDS011;25454;49.878;8.618;2023-04-06T03:36:53;10.83;;;6.80;;
39778;SDS011;25454;49.878;8.618;2023-04-06T03:41:54;8.97;;;6.70;;
39778;SDS011;25454;49.878;8.618;2023-04-06T03:46:54;7.70;;;6.17;;
39778;SDS011;25454;49.878;8.618;2023-04-06T03:51:56;8.93;;;6.60;;
39778;SDS011;25454;49.878;8.618;2023-04-06T03:56:56;7.57;;;5.90;;
39778;SDS011;25454;49.878;8.618;2023-04-06T04:01:57;8.97;;;6.10;;
39778;SDS011;25454;49.878;8.618;2023-04-06T04:06:58;13.43;;;6.00;;
39778;SDS011;25454;49.878;8.618;2023-04-06T04:11:58;9.70;;;6.57;;
39778;SDS011;25454;49.878;8.618;2023-04-06T04:17:00;8.73;;;5.97;;
39778;SDS011;25454;49.878;8.618;2023-04-06T04:22:00;8.47;;;5.90;;
39778;SDS011;25454;49.878;8.618;2023-04-06T04:27:04;6.60;;;5.77;;
39778;SDS011;25454;49.878;8.618;2023-04-06T04:32:05;8.97;;;6.70;;
39778;SDS011;25454;49.878;8.618;2023-04-06T04:37:06;8.83;;;5.90;;
39778;SDS011;25454;49.878;8.618;2023-04-06T04:42:06;9.70;;;6.73;;
39778;SDS011;25454;49.878;8.618;2023-04-06T04:47:07;8.20;;;6.67;;
39778;SDS011;25454;49.878;8.618;2023-04-06T04:52:08;9.17;;;7.00;;
39778;SDS011;25454;49.878;8.618;2023-04-06T04:57:08;8.57;;;6.63;;
39778;SDS011;25454;49.878;8.618;2023-04-06T05:02:09;10.73;;;6.27;;
39778;SDS011;25454;49.878;8.618;2023-04-06T05:07:10;11.50;;;7.30;;
39778;SDS011;25454;49.878;8.618;2023-04-06T05:12:10;9.77;;;7.07;;
39778;SDS011;25454;49.878;8.618;2023-04-06T05:17:11;10.00;;;6.67;;
39778;SDS011;25454;49.878;8.618;2023-04-06T05:22:12;8.53;;;6.67;;
39778;SDS011;25454;49.878;8.618;2023-04-06T05:27:15;27.67;;;14.47;;
39778;SDS011;25454;49.878;8.618;2023-04-06T05:32:16;34.17;;;17.60;;
39778;SDS011;25454;49.878;8.618;2023-04-06T05:37:21;22.57;;;11.67;;
39778;SDS011;25454;49.878;8.618;2023-04-06T05:42:22;16.87;;;10.00;;
39778;SDS011;25454;49.878;8.618;2023-04-06T05:47:23;12.03;;;7.33;;
39778;SDS011;25454;49.878;8.618;2023-04-06T05:52:23;11.10;;;6.90;;
39778;SDS011;25454;49.878;8.618;2023-04-06T05:57:24;11.50;;;7.67;;
39778;SDS011;25454;49.878;8.618;2023-04-06T06:02:25;11.73;;;8.30;;
39778;SDS011;25454;49.878;8.618;2023-04-06T06:07:26;12.57;;;7.20;;
39778;SDS011;25454;49.878;8.618;2023-04-06T06:12:26;10.40;;;6.50;;
39778;SDS011;25454;49.878;8.618;2023-04-06T06:17:27;7.17;;;6.30;;
39778;SDS011;25454;49.878;8.618;2023-04-06T06:22:27;11.43;;;6.50;;
39778;SDS011;25454;49.878;8.618;2023-04-06T06:27:28;9.50;;;6.60;;
39778;SDS011;25454;49.878;8.618;2023-04-06T06:32:29;10.20;;;6.40;;
39778;SDS011;25454;49.878;8.618;2023-04-06T06:37:31;7.47;;;6.23;;
39778;SDS011;25454;49.878;8.618;2023-04-06T06:42:31;8.83;;;6.70;;
39778;SDS011;25454;49.878;8.618;2023-04-06T06:47:32;7.33;;;6.43;;
39778;SDS011;25454;49.878;8.618;2023-04-06T06:52:32;9.13;;;6.43;;
39778;SDS011;25454;49.878;8.618;2023-04-06T06:57:33;9.40;;;6.00;;
39778;SDS011;25454;49.878;8.618;2023-04-06T07:02:34;11.93;;;7.90;;
39778;SDS011;25454;49.878;8.618;2023-04-06T07:07:38;12.63;;;7.80;;
39778;SDS011;25454;49.878;8.618;2023-04-06T07:12:39;10.27;;;6.90;;
39778;SDS011;25454;49.878;8.618;2023-04-06T07:17:39;12.07;;;6.97;;
39778;SDS011;25454;49.878;8.618;2023-04-06T07:22:42;8.37;;;6.57;;
39778;SDS011;25454;49.878;8.618;2023-04-06T07:27:44;11.57;;;7.93;;
39778;SDS011;25454;49.878;8.618;2023-04-06T07:32:45;10.43;;;6.80;;
39778;SDS011;25454;49.878;8.618;2023-04-06T07:37:46;10.50;;;6.97;;
39778;SDS011;25454;49.878;8.618;2023-04-06T07:42:47;11.50;;;7.03;;
39778;SDS011;25454;49.878;8.618;2023-04-06T07:47:48;9.50;;;6.47;;
39778;SDS011;25454;49.878;8.618;2023-04-06T07:52:50;9.63;;;6.37;;
39778;SDS011;25454;49.878;8.618;2023-04-06T07:57:50;9.33;;;6.57;;
39778;SDS011;25454;49.878;8.618;2023-04-06T08:02:51;8.23;;;6.93;;
39778;SDS011;25454;49.878;8.618;2023-04-06T08:07:51;7.57;;;6.77;;
39778;SDS011;25454;49.878;8.618;2023-04-06T08:12:52;11.27;;;7.63;;
39778;SDS011;25454;49.878;8.618;2023-04-06T08:17:53;11.10;;;6.90;;
39778;SDS011;25454;49.878;8.618;2023-04-06T08:22:57;8.27;;;6.87;;
39778;SDS011;25454;49.878;8.618;2023-04-06T08:27:57;7.50;;;6.70;;
39778;SDS011;25454;49.878;8.618;2023-04-06T08:32:58;9.73;;;6.80;;
39778;SDS011;25454;49.878;8.618;2023-04-06T08:37:58;9.37;;;6.90;;
39778;SDS011;25454;49.878;8.618;2023-04-06T08:43:00;8.47;;;7.63;;
39778;SDS011;25454;49.878;8.618;2023-04-06T08:48:03;10.30;;;7.47;;
39778;SDS011;25454;49.878;8.618;2023-04-06T08:53:07;7.30;;;6.60;;
39778;SDS011;25454;49.878;8.618;2023-04-06T08:58:08;7.50;;;6.70;;
39778;SDS011;25454;49.878;8.618;2023-04-06T09:03:08;11.33;;;7.57;;
39778;SDS011;25454;49.878;8.618;2023-04-06T09:08:13;7.40;;;6.47;;
39778;SDS011;25454;49.878;8.618;2023-04-06T09:13:13;8.47;;;6.57;;
39778;SDS011;25454;49.878;8.618;2023-04-06T09:18:14;7.50;;;6.70;;
39778;SDS011;25454;49.878;8.618;2023-04-06T09:23:28;8.90;;;6.93;;
39778;SDS011;25454;49.878;8.618;2023-04-06T09:28:40;8.63;;;6.90;;
39778;SDS011;25454;49.878;8.618;2023-04-06T09:33:51;7.80;;;6.57;;
39778;SDS011;25454;49.878;8.618;2023-04-06T09:39:00;8.20;;;7.17;;
39778;SDS011;25454;49.878;8.618;2023-04-06T09:44:02;7.83;;;7.00;;
39778;SDS011;25454;49.878;8.618;2023-04-06T09:49:07;9.77;;;7.33;;
39778;SDS011;25454;49.878;8.618;2023-04-06T09:54:09;12.90;;;7.27;;
39778;SDS011;25454;49.878;8.618;2023-04-06T09:59:13;11.67;;;7.67;;
39778;SDS011;25454;49.878;8.618;2023-04-06T10:09:44;10.10;;;7.73;;
39778;SDS011;25454;49.878;8.618;2023-04-06T10:14:46;12.03;;;8.30;;
39778;SDS011;25454;49.878;8.618;2023-04-06T10:19:53;9.03;;;8.23;;
39778;SDS011;25454;49.878;8.618;2023-04-06T10:25:14;8.63;;;7.73;;
39778;SDS011;25454;49.878;8.618;2023-04-06T10:30:15;9.73;;;7.67;;
39778;SDS011;25454;49.878;8.618;2023-04-06T10:35:17;11.73;;;8.67;;
39778;SDS011;25454;49.878;8.618;2023-04-06T10:40:24;12.07;;;8.20;;
39778;SDS011;25454;49.878;8.618;2023-04-06T10:45:25;18.77;;;9.03;;
39778;SDS011;25454;49.878;8.618;2023-04-06T10:50:30;9.93;;;8.87;;
39778;SDS011;25454;49.878;8.618;2023-04-06T10:55:33;9.17;;;8.27;;
39778;SDS011;25454;49.878;8.618;2023-04-06T11:00:35;10.47;;;8.93;;
39778;SDS011;25454;49.878;8.618;2023-04-06T11:05:46;10.47;;;9.37;;
39778;SDS011;25454;49.878;8.618;2023-04-06T11:10:48;12.73;;;9.33;;
39778;SDS011;25454;49.878;8.618;2023-04-06T11:15:49;11.13;;;9.27;;
39778;SDS011;25454;49.878;8.618;2023-04-06T11:20:53;9.33;;;8.43;;
39778;SDS011;25454;49.878;8.618;2023-04-06T11:25:53;10.77;;;9.67;;
39778;SDS011;25454;49.878;8.618;2023-04-06T11:30:54;10.20;;;9.13;;
39778;SDS011;25454;49.878;8.618;2023-04-06T11:35:59;12.10;;;8.03;;
39778;SDS011;25454;49.878;8.618;2023-04-06T11:41:00;10.37;;;9.23;;
39778;SDS011;25454;49.878;8.618;2023-04-06T11:46:01;10.80;;;8.30;;
39778;SDS011;25454;49.878;8.618;2023-04-06T11:51:03;9.83;;;8.47;;
39778;SDS011;25454;49.878;8.618;2023-04-06T11:56:05;10.70;;;7.80;;
39778;SDS011;25454;49.878;8.618;2023-04-06T12:01:05;20.47;;;8.57;;
39778;SDS011;25454;49.878;8.618;2023-04-06T12:06:06;11.40;;;7.93;;
39778;SDS011;25454;49.878;8.618;2023-04-06T12:11:07;10.87;;;7.13;;
39778;SDS011;25454;49.878;8.618;2023-04-06T12:16:07;8.10;;;6.70;;
39778;SDS011;25454;49.878;8.618;2023-04-06T12:21:08;8.93;;;7.47;;
39778;SDS011;25454;49.878;8.618;2023-04-06T12:26:09;9.87;;;8.27;;
39778;SDS011;25454;49.878;8.618;2023-04-06T12:31:16;10.03;;;7.60;;
39778;SDS011;25454;49.878;8.618;2023-04-06T12:36:19;13.20;;;7.97;;
39778;SDS011;25454;49.878;8.618;2023-04-06T12:41:21;13.60;;;7.90;;
39778;SDS011;25454;49.878;8.618;2023-04-06T12:46:24;8.80;;;7.53;;
39778;SDS011;25454;49.878;8.618;2023-04-06T12:51:27;9.63;;;7.10;;
39778;SDS011;25454;49.878;8.618;2023-04-06T12:56:28;9.97;;;6.70;;
39778;SDS011;25454;49.878;8.618;2023-04-06T13:01:28;8.57;;;6.63;;
39778;SDS011;25454;49.878;8.618;2023-04-06T13:06:32;11.40;;;7.20;;
39778;SDS011;25454;49.878;8.618;2023-04-06T13:11:33;14.80;;;7.40;;
39778;SDS011;25454;49.878;8.618;2023-04-06T13:16:33;7.47;;;6.00;;
39778;SDS011;25454;49.878;8.618;2023-04-06T13:21:34;6.73;;;6.00;;
39778;SDS011;25454;49.878;8.618;2023-04-06T13:26:35;7.23;;;6.20;;
39778;SDS011;25454;49.878;8.618;2023-04-06T13:31:36;8.87;;;6.30;;
39778;SDS011;25454;49.878;8.618;2023-04-06T13:36:37;9.37;;;6.30;;
39778;SDS011;25454;49.878;8.618;2023-04-06T13:41:38;8.43;;;6.23;;
39778;SDS011;25454;49.878;8.618;2023-04-06T13:46:40;9.60;;;6.70;;
39778;SDS011;25454;49.878;8.618;2023-04-06T13:51:40;8.90;;;6.73;;
39778;SDS011;25454;49.878;8.618;2023-04-06T13:56:42;8.03;;;6.23;;
39778;SDS011;25454;49.878;8.618;2023-04-06T14:01:42;9.10;;;6.90;;
39778;SDS011;25454;49.878;8.618;2023-04-06T14:06:44;7.70;;;6.23;;
39778;SDS011;25454;49.878;8.618;2023-04-06T14:11:45;10.83;;;6.30;;
39778;SDS011;25454;49.878;8.618;2023-04-06T14:16:46;8.23;;;5.13;;
39778;SDS011;25454;49.878;8.618;2023-04-06T14:21:47;7.17;;;5.70;;
39778;SDS011;25454;49.878;8.618;2023-04-06T14:26:48;11.77;;;6.70;;
39778;SDS011;25454;49.878;8.618;2023-04-06T14:31:49;11.67;;;6.93;;
39778;SDS011;25454;49.878;8.618;2023-04-06T14:36:49;10.13;;;6.80;;
39778;SDS011;25454;49.878;8.618;2023-04-06T14:41:50;10.27;;;7.20;;
39778;SDS011;25454;49.878;8.618;2023-04-06T14:46:51;9.07;;;6.97;;
39778;SDS011;25454;49.878;8.618;2023-04-06T14:51:51;8.20;;;7.23;;
39778;SDS011;25454;49.878;8.618;2023-04-06T14:56:53;10.43;;;7.03;;
39778;SDS011;25454;49.878;8.618;2023-04-06T15:01:53;11.17;;;7.13;;
39778;SDS011;25454;49.878;8.618;2023-04-06T15:06:54;10.10;;;6.63;;
39778;SDS011;25454;49.878;8.618;2023-04-06T15:11:54;10.00;;;6.37;;
39778;SDS011;25454;49.878;8.618;2023-04-06T15:16:55;7.93;;;5.20;;
39778;SDS011;25454;49.878;8.618;2023-04-06T15:21:56;7.57;;;5.00;;
39778;SDS011;25454;49.878;8.618;2023-04-06T15:26:56;7.77;;;4.77;;
39778;SDS011;25454;49.878;8.618;2023-04-06T15:31:57;10.60;;;5.00;;
39778;SDS011;25454;49.878;8.618;2023-04-06T15:37:00;8.30;;;4.90;;
39778;SDS011;25454;49.878;8.618;2023-04-06T15:42:01;6.77;;;5.00;;
39778;SDS011;25454;49.878;8.618;2023-04-06T15:47:02;7.20;;;5.37;;
39778;SDS011;25454;49.878;8.618;2023-04-06T15:52:02;7.30;;;4.30;;
39778;SDS011;25454;49.878;8.618;2023-04-06T15:57:03;5.50;;;3.70;;
39778;SDS011;25454;49.878;8.618;2023-04-06T16:02:03;6.03;;;4.37;;
39778;SDS011;25454;49.878;8.618;2023-04-06T16:07:04;8.07;;;4.77;;
39778;SDS011;25454;49.878;8.618;2023-04-06T16:12:05;6.27;;;4.23;;
39778;SDS011;25454;49.878;8.618;2023-04-06T16:17:06;7.20;;;4.83;;
39778;SDS011;25454;49.878;8.618;2023-04-06T16:22:06;8.60;;;4.40;;
39778;SDS011;25454;49.878;8.618;2023-04-06T16:27:07;6.03;;;3.80;;
39778;SDS011;25454;49.878;8.618;2023-04-06T16:32:08;5.53;;;4.00;;
39778;SDS011;25454;49.878;8.618;2023-04-06T16:37:11;9.47;;;3.70;;
39778;SDS011;25454;49.878;8.618;2023-04-06T16:42:11;6.47;;;4.00;;
39778;SDS011;25454;49.878;8.618;2023-04-06T16:47:12;5.97;;;3.90;;
39778;SDS011;25454;49.878;8.618;2023-04-06T16:52:12;5.27;;;3.47;;
39778;SDS011;25454;49.878;8.618;2023-04-06T16:57:13;8.27;;;3.70;;
39778;SDS011;25454;49.878;8.618;2023-04-06T17:02:14;6.13;;;3.40;;
39778;SDS011;25454;49.878;8.618;2023-04-06T17:07:15;4.27;;;3.37;;
39778;SDS011;25454;49.878;8.618;2023-04-06T17:12:16;6.33;;;3.10;;
39778;SDS011;25454;49.878;8.618;2023-04-06T17:17:16;5.30;;;2.90;;
39778;SDS011;25454;49.878;8.618;2023-04-06T17:22:17;3.47;;;2.93;;
39778;SDS011;25454;49.878;8.618;2023-04-06T17:27:19;3.60;;;2.93;;
39778;SDS011;25454;49.878;8.618;2023-04-06T17:32:22;3.73;;;2.67;;
39778;SDS011;25454;49.878;8.618;2023-04-06T17:37:23;4.20;;;2.97;;
39778;SDS011;25454;49.878;8.618;2023-04-06T17:42:23;5.37;;;3.10;;
39778;SDS011;25454;49.878;8.618;2023-04-06T17:47:24;3.40;;;2.80;;
39778;SDS011;25454;49.878;8.618;2023-04-06T17:52:31;6.27;;;3.53;;
39778;SDS011;25454;49.878;8.618;2023-04-06T17:57:31;4.17;;;2.90;;
39778;SDS011;25454;49.878;8.618;2023-04-06T18:02:32;4.30;;;3.13;;
39778;SDS011;25454;49.878;8.618;2023-04-06T18:07:32;4.57;;;3.67;;
39778;SDS011;25454;49.878;8.618;2023-04-06T18:12:36;6.00;;;3.00;;
39778;SDS011;25454;49.878;8.618;2023-04-06T18:17:36;3.80;;;2.90;;
39778;SDS011;25454;49.878;8.618;2023-04-06T18:22:37;3.90;;;3.10;;
39778;SDS011;25454;49.878;8.618;2023-04-06T18:27:38;4.17;;;3.67;;
39778;SDS011;25454;49.878;8.618;2023-04-06T18:32:39;5.40;;;3.40;;
39778;SDS011;25454;49.878;8.618;2023-04-06T18:37:39;6.03;;;3.30;;
39778;SDS011;25454;49.878;8.618;2023-04-06T18:42:40;4.20;;;3.10;;
39778;SDS011;25454;49.878;8.618;2023-04-06T18:47:41;4.40;;;3.30;;
39778;SDS011;25454;49.878;8.618;2023-04-06T18:52:41;5.90;;;3.70;;
39778;SDS011;25454;49.878;8.618;2023-04-06T18:57:42;5.27;;;4.00;;
39778;SDS011;25454;49.878;8.618;2023-04-06T19:02:43;4.47;;;4.07;;
39778;SDS011;25454;49.878;8.618;2023-04-06T19:07:44;4.50;;;4.10;;
39778;SDS011;25454;49.878;8.618;2023-04-06T19:12:55;5.73;;;3.73;;
39778;SDS011;25454;49.878;8.618;2023-04-06T19:17:56;5.23;;;4.30;;
39778;SDS011;25454;49.878;8.618;2023-04-06T19:22:57;5.07;;;4.20;;
39778;SDS011;25454;49.878;8.618;2023-04-06T19:27:58;5.47;;;4.07;;
39778;SDS011;25454;49.878;8.618;2023-04-06T19:33:02;5.20;;;4.10;;
39778;SDS011;25454;49.878;8.618;2023-04-06T19:38:03;8.13;;;4.50;;
39778;SDS011;25454;49.878;8.618;2023-04-06T19:43:04;5.40;;;4.67;;
39778;SDS011;25454;49.878;8.618;2023-04-06T19:48:07;6.07;;;4.83;;
39778;SDS011;25454;49.878;8.618;2023-04-06T19:53:07;5.43;;;4.33;;
39778;SDS011;25454;49.878;8.618;2023-04-06T19:58:08;5.87;;;5.10;;
39778;SDS011;25454;49.878;8.618;2023-04-06T20:03:09;6.30;;;5.50;;
39778;SDS011;25454;49.878;8.618;2023-04-06T20:08:09;8.67;;;5.60;;
39778;SDS011;25454;49.878;8.618;2023-04-06T20:13:10;7.97;;;5.83;;
39778;SDS011;25454;49.878;8.618;2023-04-06T20:18:10;6.97;;;6.27;;
39778;SDS011;25454;49.878;8.618;2023-04-06T20:23:11;8.13;;;6.73;;
39778;SDS011;25454;49.878;8.618;2023-04-06T20:28:12;7.57;;;6.77;;
39778;SDS011;25454;49.878;8.618;2023-04-06T20:33:12;8.60;;;7.13;;
39778;SDS011;25454;49.878;8.618;2023-04-06T20:38:13;8.03;;;7.23;;
39778;SDS011;25454;49.878;8.618;2023-04-06T20:43:13;12.33;;;8.80;;
39778;SDS011;25454;49.878;8.618;2023-04-06T20:48:14;10.33;;;8.77;;
39778;SDS011;25454;49.878;8.618;2023-04-06T20:53:15;11.27;;;9.53;;
39778;SDS011;25454;49.878;8.618;2023-04-06T20:58:19;10.57;;;9.47;;
39778;SDS011;25454;49.878;8.618;2023-04-06T21:03:20;12.07;;;9.90;;
39778;SDS011;25454;49.878;8.618;2023-04-06T21:08:20;13.70;;;10.97;;
39778;SDS011;25454;49.878;8.618;2023-04-06T21:13:21;12.40;;;11.10;;
39778;SDS011;25454;49.878;8.618;2023-04-06T21:18:22;12.17;;;10.73;;
39778;SDS011;25454;49.878;8.618;2023-04-06T21:23:22;13.87;;;11.33;;
39778;SDS011;25454;49.878;8.618;2023-04-06T21:28:23;14.03;;;12.53;;
39778;SDS011;25454;49.878;8.618;2023-04-06T21:33:25;14.70;;;13.03;;
39778;SDS011;25454;49.878;8.618;2023-04-06T21:38:25;15.93;;;13.97;;
39778;SDS011;25454;49.878;8.618;2023-04-06T21:43:40;15.63;;;13.93;;
39778;SDS011;25454;49.878;8.618;2023-04-06T21:48:41;16.43;;;13.00;;
39778;SDS011;25454;49.878;8.618;2023-04-06T21:53:41;15.23;;;13.57;;
39778;SDS011;25454;49.878;8.618;2023-04-06T21:58:42;16.23;;;14.10;;
39778;SDS011;25454;49.878;8.618;2023-04-06T22:03:43;14.87;;;12.33;;
39778;SDS011;25454;49.878;8.618;2023-04-06T22:08:44;15.73;;;12.43;;
39778;SDS011;25454;49.878;8.618;2023-04-06T22:13:51;17.80;;;13.03;;
39778;SDS011;25454;49.878;8.618;2023-04-06T22:18:51;15.20;;;11.93;;
39778;SDS011;25454;49.878;8.618;2023-04-06T22:23:52;14.17;;;11.70;;
39778;SDS011;25454;49.878;8.618;2023-04-06T22:28:53;12.93;;;11.60;;
39778;SDS011;25454;49.878;8.618;2023-04-06T22:33:53;14.57;;;11.47;;
39778;SDS011;25454;49.878;8.618;2023-04-06T22:38:54;12.73;;;11.17;;
39778;SDS011;25454;49.878;8.618;2023-04-06T22:43:57;13.07;;;11.27;;
39778;SDS011;25454;49.878;8.618;2023-04-06T22:48:58;13.33;;;11.17;;
39778;SDS011;25454;49.878;8.618;2023-04-06T22:53:58;13.37;;;11.33;;
39778;SDS011;25454;49.878;8.618;2023-04-06T22:58:59;13.80;;;11.10;;
39778;SDS011;25454;49.878;8.618;2023-04-06T23:04:00;13.03;;;11.47;;
39778;SDS011;25454;49.878;8.618;2023-04-06T23:09:00;14.40;;;11.03;;
39778;SDS011;25454;49.878;8.618;2023-04-06T23:14:01;15.13;;;10.83;;
39778;SDS011;25454;49.878;8.618;2023-04-06T23:19:01;12.27;;;10.93;;
39778;SDS011;25454;49.878;8.618;2023-04-06T23:24:02;13.30;;;11.37;;
39778;SDS011;25454;49.878;8.618;2023-04-06T23:29:02;12.43;;;11.00;;
39778;SDS011;25454;49.878;8.618;2023-04-06T23:34:03;11.90;;;10.60;;
39778;SDS011;25454;49.878;8.618;2023-04-06T23:39:04;13.60;;;10.33;;
39778;SDS011;25454;49.878;8.618;2023-04-06T23:44:04;12.97;;;10.20;;
39778;SDS011;25454;49.878;8.618;2023-04-06T23:49:05;11.37;;;9.80;;
39778;SDS011;25454;49.878;8.618;2023-04-06T23:54:06;12.50;;;9.67;;
39778;SDS011;25454;49.878;8.618;2023-04-06T23:59:08;12.13;;;9.67;;
